Time;durP1;ratioP1;P1;durP2;ratioP2;P2;SDS_P1;SDS_P2;PMS_P1;PMS_P2;Temp;Humidity;BMP_temperature;BMP_pressure;BME280_temperature;BME280_humidity;BME280_pressure;Samples;Min_cycle;Max_cycle;Signal;HPM_P1;HPM_P2
2022/10/19 00:01:25;;;;;;;16.95;9.30;;;;;;;11.19;100.00;99483.25;1759042;80;21390;-71
2022/10/19 00:03:54;;;;;;;18.70;9.70;;;;;;;11.18;100.00;99476.17;1758019;81;21105;-70
2022/10/19 00:06:26;;;;;;;19.07;9.13;;;;;;;11.18;100.00;99476.17;1760203;80;21110;-70
2022/10/19 00:08:59;;;;;;;17.50;9.13;;;;;;;11.14;100.00;99469.10;1750190;80;21531;-70
2022/10/19 00:11:28;;;;;;;20.02;9.60;;;;;;;11.12;100.00;99471.85;1748880;80;21083;-70
2022/10/19 00:13:56;;;;;;;18.75;9.88;;;;;;;11.08;100.00;99460.70;1758455;80;21506;-70
2022/10/19 00:16:23;;;;;;;20.70;10.15;;;;;;;11.06;100.00;99465.60;1759158;80;21114;-71
2022/10/19 00:18:49;;;;;;;19.48;9.45;;;;;;;11.02;100.00;99456.94;1737385;81;21023;-70
2022/10/19 00:21:17;;;;;;;16.20;9.03;;;;;;;10.96;100.00;99458.31;1760926;80;21604;-69
2022/10/19 00:23:45;;;;;;;16.87;9.83;;;;;;;10.92;100.00;99452.34;1756763;81;21052;-70
2022/10/19 00:26:11;;;;;;;;;;;;;;;10.89;100.00;99451.55;1767086;80;21644;-69
2022/10/19 00:28:38;;;;;;;18.05;9.48;;;;;;;10.87;100.00;99446.94;1736744;81;20136;-69
2022/10/19 00:31:06;;;;;;;19.75;10.63;;;;;;;10.76;100.00;99439.91;1759436;80;21034;-69
2022/10/19 00:33:34;;;;;;;15.40;9.43;;;;;;;10.74;100.00;99440.17;1758524;80;21015;-69
2022/10/19 00:36:01;;;;;;;19.60;10.03;;;;;;;10.72;100.00;99437.48;1756819;80;21117;-70
2022/10/19 00:38:28;;;;;;;15.15;8.83;;;;;;;10.68;100.00;99430.41;1766019;80;21087;-70
2022/10/19 00:40:54;;;;;;;22.17;10.00;;;;;;;10.65;100.00;99421.45;1756722;80;21120;-70
2022/10/19 00:43:24;;;;;;;17.60;9.75;;;;;;;10.62;100.00;99419.83;1754841;81;21932;-70
2022/10/19 00:45:50;;;;;;;18.27;9.55;;;;;;;10.60;100.00;99413.84;1757116;80;21051;-70
2022/10/19 00:48:24;;;;;;;;;;;;;;;10.58;100.00;99416.86;1766847;80;21085;-70
2022/10/19 00:50:51;;;;;;;20.08;8.30;;;;;;;10.62;100.00;99411.12;1759179;80;20165;-70
2022/10/19 00:53:19;;;;;;;16.60;9.35;;;;;;;10.56;100.00;99410.86;1751150;81;21099;-70
2022/10/19 00:55:45;;;;;;;;;;;;;;;10.53;100.00;99405.98;1745217;80;21078;-71
2022/10/19 00:58:12;;;;;;;19.70;9.23;;;;;;;10.51;100.00;99401.92;1759391;81;20447;-69
2022/10/19 01:00:39;;;;;;;17.42;8.60;;;;;;;10.42;100.00;99395.69;1758882;80;21901;-71
2022/10/19 01:03:05;;;;;;;19.00;9.30;;;;;;;10.42;100.00;99391.61;1751916;81;21094;-70
2022/10/19 01:05:33;;;;;;;22.02;10.05;;;;;;;10.39;100.00;99386.72;1758670;80;21667;-69
2022/10/19 01:08:01;;;;;;;20.25;10.20;;;;;;;10.41;100.00;99380.47;1760776;81;21066;-69
2022/10/19 01:11:06;;;;;;;18.67;9.90;;;;;;;10.41;100.00;99387.27;1757615;80;22366;-69
2022/10/19 01:13:59;;;;;;;18.20;9.35;;;;;;;10.40;100.00;99377.48;1756695;80;21058;-68
2022/10/19 01:16:43;;;;;;;14.50;9.28;;;;;;;10.41;100.00;99378.30;1720086;82;21141;-71
2022/10/19 01:19:21;;;;;;;17.05;9.60;;;;;;;10.40;100.00;99373.94;1724163;82;21086;-71
2022/10/19 01:21:49;;;;;;;16.48;10.03;;;;;;;10.35;100.00;99376.13;1708036;83;21145;-70
2022/10/19 01:24:49;;;;;;;15.78;8.58;;;;;;;10.32;100.00;99366.34;1689670;83;21088;-70
2022/10/19 01:27:42;;;;;;;17.95;9.10;;;;;;;10.31;100.00;99370.97;1678169;84;21676;-69
2022/10/19 01:30:16;;;;;;;17.90;9.23;;;;;;;10.28;100.00;99370.17;1693348;83;21142;-69
2022/10/19 01:33:01;;;;;;;16.95;8.83;;;;;;;10.25;100.00;99365.29;1702787;83;21431;-69
2022/10/19 01:35:51;;;;;;;16.73;8.90;;;;;;;10.23;100.00;99360.69;1697202;83;21093;-70
2022/10/19 01:38:37;;;;;;;15.48;8.30;;;;;;;10.28;100.00;99362.01;1699348;83;21074;-70
2022/10/19 01:41:29;;;;;;;18.37;8.68;;;;;;;10.25;100.00;99353.59;1718372;82;21054;-70
2022/10/19 01:44:04;;;;;;;19.05;8.73;;;;;;;10.21;100.00;99357.95;1696789;83;21578;-70
2022/10/19 01:46:37;;;;;;;18.70;9.53;;;;;;;10.19;100.00;99355.53;1703517;84;21126;-70
2022/10/19 01:49:11;;;;;;;20.20;9.53;;;;;;;10.17;100.00;99344.09;1712659;82;21578;-69
2022/10/19 01:51:43;;;;;;;15.20;8.48;;;;;;;10.14;100.00;99346.53;1735837;81;21063;-70
2022/10/19 01:54:11;;;;;;;23.05;8.70;;;;;;;10.15;100.00;99342.22;1737139;81;21065;-70
2022/10/19 01:56:41;;;;;;;15.75;8.73;;;;;;;10.18;100.00;99343.02;1730030;81;21114;-70
2022/10/19 01:59:07;;;;;;;16.02;9.20;;;;;;;10.15;100.00;99345.48;1724437;82;21548;-70
2022/10/19 02:01:35;;;;;;;;;;;;;;;10.11;100.00;99343.01;1742757;81;21083;-70
2022/10/19 02:04:01;;;;;;;22.85;9.25;;;;;;;10.05;100.00;99340.87;1742897;81;20130;-70
2022/10/19 02:06:27;;;;;;;19.05;8.38;;;;;;;9.96;100.00;99339.80;1682738;82;21068;-70
2022/10/19 02:08:55;;;;;;;15.43;8.68;;;;;;;9.94;100.00;99333.83;1722787;82;21074;-70
2022/10/19 02:11:22;;;;;;;19.17;8.50;;;;;;;9.96;100.00;99331.64;1758549;81;21552;-70
2022/10/19 02:13:56;;;;;;;16.87;8.58;;;;;;;9.96;100.00;99331.64;1722789;81;21063;-70
2022/10/19 02:16:37;;;;;;;13.32;8.78;;;;;;;9.99;100.00;99333.25;1740369;81;21869;-69
2022/10/19 02:19:07;;;;;;;16.25;9.23;;;;;;;9.97;100.00;99334.09;1738059;81;21027;-69
2022/10/19 02:21:35;;;;;;;18.25;8.95;;;;;;;9.94;100.00;99345.53;1744999;81;21704;-69
2022/10/19 02:24:01;;;;;;;;;;;;;;;9.91;100.00;99343.91;1732556;81;21071;-69
2022/10/19 02:26:28;;;;;;;16.12;8.35;;;;;;;9.87;100.00;99345.01;1734005;81;20169;-69
2022/10/19 02:28:54;;;;;;;18.07;8.30;;;;;;;9.86;100.00;99337.11;1742528;81;21548;-69
2022/10/19 02:31:21;;;;;;;15.20;9.08;;;;;;;9.87;100.00;99344.19;1740178;81;21028;-69
2022/10/19 02:33:47;;;;;;;;;;;;;;;9.85;100.00;99344.99;1750298;81;21361;-70
2022/10/19 02:36:13;;;;;;;14.07;7.95;;;;;;;9.81;100.00;99346.66;1741427;81;20131;-69
2022/10/19 02:38:40;;;;;;;15.72;9.10;;;;;;;9.72;100.00;99348.30;1727692;81;21604;-69
2022/10/19 02:41:16;;;;;;;14.45;8.60;;;;;;;9.76;100.00;99346.66;1726591;82;21110;-69
2022/10/19 02:43:48;;;;;;;12.35;7.72;;;;;;;9.83;100.00;99344.47;1735465;81;21134;-69
2022/10/19 02:46:27;;;;;;;14.85;8.35;;;;;;;9.83;100.00;99342.56;1739615;81;21102;-70
2022/10/19 02:48:55;;;;;;;15.60;9.43;;;;;;;9.80;100.00;99344.48;1750953;80;21066;-70
2022/10/19 02:51:34;;;;;;;14.78;8.50;;;;;;;9.77;100.00;99343.68;1754905;80;21121;-70
2022/10/19 02:54:00;;;;;;;14.35;8.88;;;;;;;9.77;100.00;99342.86;1753175;80;21062;-69
2022/10/19 02:56:27;;;;;;;14.83;8.75;;;;;;;9.83;100.00;99330.87;1747552;81;21095;-69
2022/10/19 02:58:53;;;;;;;19.23;9.00;;;;;;;9.85;100.00;99323.24;1745782;81;21019;-69
2022/10/19 03:01:21;;;;;;;12.50;8.48;;;;;;;9.82;100.00;99315.11;1753131;80;21129;-69
2022/10/19 03:03:48;;;;;;;16.55;9.53;;;;;;;9.81;100.00;99317.55;1721341;82;21051;-68
2022/10/19 03:06:14;;;;;;;18.02;8.83;;;;;;;9.82;100.00;99307.48;1750304;80;21094;-68
2022/10/19 03:08:40;;;;;;;17.92;8.70;;;;;;;9.82;100.00;99310.20;1756034;80;21585;-69
2022/10/19 03:11:07;;;;;;;;;;;;;;;9.89;100.00;99308.01;1750589;80;21098;-68
2022/10/19 03:13:33;;;;;;;14.47;8.03;;;;;;;9.94;100.00;99308.82;1750753;80;20130;-70
2022/10/19 03:16:11;;;;;;;15.93;9.65;;;;;;;9.86;100.00;99305.31;1748151;80;21690;-70
2022/10/19 03:18:37;;;;;;;15.15;8.80;;;;;;;9.85;100.00;99302.85;1748467;81;21036;-70
2022/10/19 03:21:07;;;;;;;;;;;;;;;9.84;100.00;99297.98;1754422;80;21077;-70
2022/10/19 03:23:33;;;;;;;20.45;9.30;;;;;;;9.84;100.00;99306.14;1750957;81;20152;-70
2022/10/19 03:26:00;;;;;;;16.07;9.18;;;;;;;9.80;100.00;99301.53;1754773;80;21135;-70
2022/10/19 03:28:28;;;;;;;15.40;9.13;;;;;;;9.89;100.00;99306.11;1756732;80;21063;-70
2022/10/19 03:30:56;;;;;;;20.30;9.88;;;;;;;9.93;100.00;99299.03;1757139;80;21535;-70
2022/10/19 03:33:23;;;;;;;18.37;10.05;;;;;;;9.96;100.00;99283.52;1759637;80;21065;-70
2022/10/19 03:35:50;;;;;;;19.35;10.45;;;;;;;9.99;100.00;99282.13;1751987;80;21078;-70
2022/10/19 03:38:16;;;;;;;;;;;;;;;10.04;100.00;99287.56;1729665;82;21058;-70
2022/10/19 03:40:44;;;;;;;19.40;9.53;;;;;;;10.11;100.00;99289.44;1719606;82;20118;-70
2022/10/19 03:43:11;;;;;;;21.85;10.13;;;;;;;10.12;100.00;99300.59;1751412;81;21082;-70
2022/10/19 03:45:37;;;;;;;14.47;9.10;;;;;;;10.15;100.00;99295.98;1739668;80;21156;-70
2022/10/19 03:48:04;;;;;;;16.02;9.45;;;;;;;10.18;100.00;99294.59;1754392;80;22122;-70
2022/10/19 03:50:30;;;;;;;16.48;9.83;;;;;;;10.20;100.00;99300.59;1721383;81;21165;-70
2022/10/19 03:52:57;;;;;;;14.78;9.08;;;;;;;10.21;100.00;99319.88;1752147;81;21043;-70
2022/10/19 03:55:24;;;;;;;;;;;;;;;10.25;100.00;99306.80;1744339;80;21074;-69
2022/10/19 03:57:50;;;;;;;20.02;10.13;;;;;;;10.32;100.00;99318.19;1753913;81;20141;-70
2022/10/19 04:00:17;;;;;;;17.82;10.85;;;;;;;10.30;100.00;99319.03;1755403;81;21070;-70
2022/10/19 04:02:44;;;;;;;21.93;11.93;;;;;;;10.32;100.00;99330.98;1722513;82;21046;-70
2022/10/19 04:05:11;;;;;;;;;;;;;;;10.31;100.00;99338.86;1760963;80;21079;-70
2022/10/19 04:07:37;;;;;;;21.62;11.83;;;;;;;10.30;100.00;99335.36;1756393;80;20170;-70
2022/10/19 04:10:05;;;;;;;20.90;12.00;;;;;;;10.24;100.00;99338.35;1750271;81;21116;-70
2022/10/19 04:12:33;;;;;;;20.08;11.08;;;;;;;10.31;100.00;99332.88;1753847;81;21083;-70
2022/10/19 04:15:00;;;;;;;20.68;12.40;;;;;;;10.41;100.00;99343.73;1746094;81;21552;-70
2022/10/19 04:17:27;;;;;;;22.37;12.88;;;;;;;10.47;100.00;99342.61;1750378;80;21022;-69
2022/10/19 04:19:54;;;;;;;20.02;12.55;;;;;;;10.52;100.00;99328.71;1715174;82;21397;-69
2022/10/19 04:22:22;;;;;;;20.23;11.78;;;;;;;10.56;100.00;99321.05;1751012;81;21656;-72
2022/10/19 04:24:50;;;;;;;22.65;12.15;;;;;;;10.64;100.00;99319.09;1752957;80;21687;-70
2022/10/19 04:27:16;;;;;;;24.02;12.28;;;;;;;10.76;100.00;99324.20;1753314;82;21034;-70
2022/10/19 04:29:43;;;;;;;18.52;12.88;;;;;;;10.86;100.00;99305.06;1753271;81;21030;-70
2022/10/19 04:32:09;;;;;;;27.10;14.13;;;;;;;10.91;100.00;99307.19;1752625;81;21043;-69
2022/10/19 04:34:35;;;;;;;22.90;13.55;;;;;;;10.95;100.00;99300.63;1753873;82;21054;-70
2022/10/19 04:37:02;;;;;;;20.80;12.65;;;;;;;11.00;100.00;99304.68;1753552;81;21719;-70
2022/10/19 04:39:29;;;;;;;21.50;12.53;;;;;;;11.08;100.00;99320.42;1753415;82;21133;-70
2022/10/19 04:41:55;;;;;;;;;;;;;;;11.10;100.00;99326.38;1755516;80;21585;-70
2022/10/19 04:44:21;;;;;;;22.30;13.70;;;;;;;11.08;100.00;99342.76;1753177;81;20128;-69
2022/10/19 04:46:48;;;;;;;22.62;13.25;;;;;;;11.01;100.00;99340.91;1730070;80;21575;-70
2022/10/19 04:49:14;;;;;;;21.25;12.82;;;;;;;11.03;100.00;99335.43;1743967;80;21046;-69
2022/10/19 04:51:40;;;;;;;;;;;;;;;11.10;100.00;99345.45;1739429;81;21621;-70
2022/10/19 04:54:07;;;;;;;23.05;13.60;;;;;;;11.15;100.00;99333.71;1736228;81;20299;-70
2022/10/19 04:56:33;;;;;;;24.35;14.53;;;;;;;11.15;100.00;99342.70;1737720;81;21074;-70
2022/10/19 04:59:00;;;;;;;20.55;13.90;;;;;;;11.17;100.00;99354.66;1738219;81;21591;-69
2022/10/19 05:01:28;;;;;;;21.35;12.95;;;;;;;11.16;100.00;99366.67;1739206;80;21080;-70
2022/10/19 05:03:56;;;;;;;20.90;13.10;;;;;;;11.15;100.00;99367.22;1735883;82;21012;-70
2022/10/19 05:06:23;;;;;;;24.18;15.68;;;;;;;11.17;100.00;99367.73;1732251;80;21126;-71
2022/10/19 05:08:49;;;;;;;22.67;14.83;;;;;;;11.21;100.00;99370.70;1736725;82;21106;-70
2022/10/19 05:11:16;;;;;;;;;;;;;;;11.19;100.00;99375.09;1714026;83;21057;-69
2022/10/19 05:13:44;;;;;;;24.72;14.80;;;;;;;11.15;100.00;99367.22;1685206;83;20550;-69
2022/10/19 05:16:14;;;;;;;21.85;14.30;;;;;;;11.10;100.00;99364.52;1742866;80;21404;-69
2022/10/19 05:18:40;;;;;;;20.62;13.43;;;;;;;11.16;100.00;99358.50;1717696;82;21035;-70
2022/10/19 05:21:11;;;;;;;24.70;12.98;;;;;;;11.19;100.00;99355.20;1733052;81;21015;-68
2022/10/19 05:23:38;;;;;;;18.57;12.90;;;;;;;11.23;100.00;99354.91;1739788;80;21053;-71
2022/10/19 05:26:11;;;;;;;20.20;14.20;;;;;;;11.28;100.00;99378.82;1740858;80;21072;-73
2022/10/19 05:28:40;;;;;;;24.55;14.55;;;;;;;11.31;100.00;99392.41;1712207;82;21030;-73
2022/10/19 05:31:14;;;;;;;20.12;13.43;;;;;;;11.32;100.00;99396.78;1742958;81;21593;-73
2022/10/19 05:33:40;;;;;;;21.97;13.98;;;;;;;11.36;100.00;99404.11;1740965;81;21374;-70
2022/10/19 05:36:18;;;;;;;25.30;14.80;;;;;;;11.39;100.00;99412.25;1743371;82;21035;-69
2022/10/19 05:38:48;;;;;;;22.35;13.88;;;;;;;11.45;100.00;99408.38;1740900;81;21618;-72
2022/10/19 05:41:15;;;;;;;21.75;13.62;;;;;;;11.47;100.00;99405.66;1742947;80;21056;-67
2022/10/19 05:43:43;;;;;;;24.35;13.70;;;;;;;11.50;100.00;99397.45;1745515;80;21023;-67
2022/10/19 05:46:13;;;;;;;19.27;12.98;;;;;;;11.55;100.00;99396.59;1736951;82;21593;-69
2022/10/19 05:48:40;;;;;;;19.25;12.55;;;;;;;11.61;100.00;99400.35;1722963;82;21020;-69
2022/10/19 05:51:07;;;;;;;;;;;;;;;11.64;100.00;99408.50;1755468;81;21070;-68
2022/10/19 05:53:36;;;;;;;20.30;12.50;;;;;;;11.63;100.00;99421.86;1750893;80;20122;-70
2022/10/19 05:56:05;;;;;;;16.62;11.50;;;;;;;11.58;100.00;99430.09;1754027;81;21569;-67
2022/10/19 05:58:32;;;;;;;16.17;10.60;;;;;;;11.66;100.00;99427.55;1752700;81;20952;-67
2022/10/19 06:00:59;;;;;;;12.78;9.08;;;;;;;11.73;100.00;99420.43;1714323;82;21018;-66
2022/10/19 06:03:26;;;;;;;14.43;9.58;;;;;;;11.77;100.00;99416.86;1742688;80;20995;-69
2022/10/19 06:05:52;;;;;;;12.30;8.83;;;;;;;11.77;100.00;99422.85;1742825;80;21086;-66
2022/10/19 06:08:19;;;;;;;;;;;;;;;11.75;100.00;99425.06;1747406;80;21010;-66
2022/10/19 06:10:48;;;;;;;12.50;7.00;;;;;;;11.80;100.00;99430.45;1741826;80;20119;-66
2022/10/19 06:13:17;;;;;;;12.93;7.30;;;;;;;11.81;100.00;99437.00;1740543;81;22407;-65
2022/10/19 06:15:49;;;;;;;9.20;6.22;;;;;;;11.84;100.00;99432.88;1750552;81;21082;-67
2022/10/19 06:18:16;;;;;;;11.30;6.00;;;;;;;11.83;100.00;99442.18;1734825;81;21057;-68
2022/10/19 06:20:42;;;;;;;9.18;5.10;;;;;;;11.87;100.00;99440.48;1723693;82;21050;-66
2022/10/19 06:23:09;;;;;;;10.38;5.40;;;;;;;11.91;100.00;99445.63;1749273;80;21003;-68
2022/10/19 06:25:36;;;;;;;6.42;4.83;;;;;;;11.95;100.00;99450.23;1750780;81;21185;-68
2022/10/19 06:28:04;;;;;;;9.00;4.45;;;;;;;11.93;100.00;99459.81;1749310;80;21065;-65
2022/10/19 06:30:31;;;;;;;8.08;4.72;;;;;;;11.94;100.00;99455.41;1747809;81;21089;-66
2022/10/19 06:32:58;;;;;;;6.62;3.77;;;;;;;11.96;100.00;99449.14;1750809;81;21537;-67
2022/10/19 06:35:25;;;;;;;;;;;;;;;11.94;100.00;99447.78;1750999;80;21086;-67
2022/10/19 06:37:51;;;;;;;7.87;3.27;;;;;;;11.96;100.00;99457.87;1748205;82;20134;-67
2022/10/19 06:40:18;;;;;;;5.03;3.00;;;;;;;11.96;100.00;99469.59;1753320;81;21078;-67
2022/10/19 06:42:44;;;;;;;;;;;;;;;11.94;100.00;99461.41;1755995;80;20995;-67
2022/10/19 06:45:11;;;;;;;6.50;3.08;;;;;;;11.97;100.00;99470.42;1737918;81;20130;-67
2022/10/19 06:47:37;;;;;;;;;;;;;;;11.95;100.00;99471.23;1755043;81;21087;-66
2022/10/19 06:50:04;;;;;;;6.20;3.08;;;;;;;12.03;100.00;99477.98;1749275;80;20137;-67
2022/10/19 06:52:33;;;;;;;5.95;3.33;;;;;;;11.99;100.00;99480.48;1729535;81;21585;-68
2022/10/19 06:54:59;;;;;;;5.87;3.22;;;;;;;12.02;100.00;99485.36;1751037;80;21037;-66
2022/10/19 06:57:27;;;;;;;6.85;3.37;;;;;;;12.06;100.00;99486.95;1739273;81;21047;-66
2022/10/19 06:59:54;;;;;;;6.35;4.25;;;;;;;12.17;100.00;99489.31;1721322;82;21094;-68
2022/10/19 07:02:21;;;;;;;6.97;4.45;;;;;;;12.18;100.00;99477.84;1743178;80;20999;-68
2022/10/19 07:04:47;;;;;;;5.40;4.37;;;;;;;12.18;100.00;99477.84;1741629;81;21066;-66
2022/10/19 07:07:14;;;;;;;7.10;4.60;;;;;;;12.21;100.00;99478.09;1744841;82;21035;-67
2022/10/19 07:09:41;;;;;;;6.22;3.37;;;;;;;12.16;100.00;99478.13;1746313;80;21075;-68
2022/10/19 07:12:09;;;;;;;5.30;3.60;;;;;;;12.16;100.00;99472.67;1750851;80;21118;-67
2022/10/19 07:14:38;;;;;;;6.17;3.67;;;;;;;12.26;100.00;99479.38;1735391;80;21078;-67
2022/10/19 07:17:06;;;;;;;3.85;2.65;;;;;;;12.35;100.00;99479.03;1730165;81;21193;-68
2022/10/19 07:19:34;;;;;;;3.83;2.45;;;;;;;12.42;100.00;99481.41;1750640;81;21062;-68
2022/10/19 07:22:01;;;;;;;3.60;2.17;;;;;;;12.53;100.00;99469.28;1751781;81;22217;-68
2022/10/19 07:24:27;;;;;;;4.20;2.52;;;;;;;12.68;100.00;99471.02;1744426;81;21107;-66
2022/10/19 07:26:54;;;;;;;3.70;1.90;;;;;;;12.83;100.00;99474.35;1746370;80;21134;-66
2022/10/19 07:29:21;;;;;;;4.25;1.80;;;;;;;12.93;100.00;99473.43;1743692;80;21028;-67
2022/10/19 07:31:48;;;;;;;1.98;1.12;;;;;;;12.94;100.00;99469.02;1753507;80;21056;-68
2022/10/19 07:34:15;;;;;;;3.15;1.17;;;;;;;12.97;100.00;99460.23;1746584;80;20988;-66
2022/10/19 07:36:46;;;;;;;4.72;1.27;;;;;;;13.01;100.00;99450.89;1746167;80;21116;-67
2022/10/19 07:39:15;;;;;;;3.83;1.70;;;;;;;12.97;100.00;99454.77;1749105;80;21028;-68
2022/10/19 07:41:43;;;;;;;4.20;1.45;;;;;;;12.91;100.00;99460.59;1753674;80;21074;-67
2022/10/19 07:44:09;;;;;;;5.17;1.70;;;;;;;12.91;100.00;99453.22;1750831;81;22032;-67
2022/10/19 07:46:38;;;;;;;4.00;1.60;;;;;;;12.91;100.00;99451.85;1752415;81;21058;-67
2022/10/19 07:49:08;;;;;;;4.47;1.50;;;;;;;12.85;100.00;99460.41;1754719;82;21011;-67
2022/10/19 07:51:37;;;;;;;4.05;1.60;;;;;;;12.74;100.00;99460.28;1737228;82;21093;-66
2022/10/19 07:54:04;;;;;;;3.47;1.20;;;;;;;12.71;100.00;99457.59;1702834;83;21102;-68
2022/10/19 07:56:30;;;;;;;;;;;;;;;12.78;100.00;99465.42;1736225;81;21035;-67
2022/10/19 07:58:57;;;;;;;2.40;0.68;;;;;;;12.80;100.00;99465.93;1741534;82;20582;-65
2022/10/19 08:01:31;;;;;;;2.00;0.80;;;;;;;12.68;100.00;99464.97;1734314;81;21152;-66
2022/10/19 08:03:59;;;;;;;1.98;0.65;;;;;;;12.60;100.00;99453.90;1741714;81;21027;-67
2022/10/19 08:06:25;;;;;;;1.57;0.60;;;;;;;12.61;100.00;99457.69;1744964;81;21073;-66
2022/10/19 08:08:53;;;;;;;1.02;0.57;;;;;;;12.59;100.00;99458.55;1733446;82;21012;-67
2022/10/19 08:11:25;;;;;;;2.35;0.62;;;;;;;12.57;100.00;99453.13;1739869;80;21071;-66
2022/10/19 08:13:52;;;;;;;2.37;0.78;;;;;;;12.56;100.00;99460.50;1739301;80;20975;-67
2022/10/19 08:16:27;;;;;;;2.62;0.98;;;;;;;12.57;100.00;99457.22;1739165;80;22047;-67
2022/10/19 08:19:00;;;;;;;4.08;1.12;;;;;;;12.55;100.00;99449.85;1746805;80;21051;-66
2022/10/19 08:21:27;;;;;;;2.30;1.00;;;;;;;12.53;100.00;99442.52;1741134;81;21069;-67
2022/10/19 08:23:53;;;;;;;2.10;0.90;;;;;;;12.56;100.00;99446.03;1746961;81;21466;-68
2022/10/19 08:26:19;;;;;;;;;;;;;;;12.62;100.00;99448.95;1752785;80;21045;-68
2022/10/19 08:28:47;;;;;;;1.70;0.90;;;;;;;12.63;100.00;99441.84;1733599;81;20178;-66
2022/10/19 08:31:17;;;;;;;1.60;0.88;;;;;;;12.59;100.00;99438.06;1720998;81;21621;-66
2022/10/19 08:33:44;;;;;;;2.25;1.10;;;;;;;12.63;100.00;99443.76;1739987;80;20991;-67
2022/10/19 08:36:11;;;;;;;;;;;;;;;12.73;100.00;99447.72;1749117;81;21054;-66
2022/10/19 08:38:38;;;;;;;4.28;1.55;;;;;;;12.78;100.00;99441.66;1739532;80;20138;-67
2022/10/19 08:41:12;;;;;;;2.27;1.60;;;;;;;12.72;100.00;99444.72;1747833;80;21716;-66
2022/10/19 08:43:43;;;;;;;2.25;1.40;;;;;;;12.67;100.00;99442.07;1671910;82;21043;-67
2022/10/19 08:46:25;;;;;;;2.80;1.27;;;;;;;12.64;100.00;99446.20;1722776;81;21107;-66
2022/10/19 08:48:52;;;;;;;2.55;1.35;;;;;;;12.69;100.00;99438.48;1745146;81;21023;-66
2022/10/19 08:51:18;;;;;;;4.60;1.60;;;;;;;12.78;100.00;99432.09;1744807;80;21067;-67
2022/10/19 08:53:57;;;;;;;3.30;1.50;;;;;;;12.78;100.00;99429.91;1748188;81;21019;-67
2022/10/19 08:56:32;;;;;;;5.53;1.60;;;;;;;12.86;100.00;99427.32;1711578;83;21063;-67
2022/10/19 08:59:21;;;;;;;4.03;1.50;;;;;;;13.00;100.00;99425.25;1721452;80;21038;-65
2022/10/19 09:01:55;;;;;;;5.28;2.12;;;;;;;13.04;100.00;99427.66;1753255;80;21137;-65
2022/10/19 09:04:35;;;;;;;4.10;1.98;;;;;;;13.10;100.00;99429.23;1725477;81;21000;-66
2022/10/19 09:07:28;;;;;;;5.20;1.77;;;;;;;13.13;100.00;99417.16;1743984;80;21079;-67
2022/10/19 09:10:02;;;;;;;3.60;1.57;;;;;;;13.25;100.00;99416.13;1753417;81;22128;-65
2022/10/19 09:13:00;;;;;;;2.75;1.07;;;;;;;13.48;100.00;99422.62;1729264;82;21073;-67
2022/10/19 09:15:40;;;;;;;4.37;1.30;;;;;;;13.60;100.00;99413.95;1723573;82;21123;-67
2022/10/19 09:18:23;;;;;;;3.47;1.50;;;;;;;13.62;100.00;99418.56;1750212;80;21043;-66
2022/10/19 09:20:55;;;;;;;5.42;1.95;;;;;;;13.71;100.00;99412.67;1754101;81;21121;-65
2022/10/19 09:23:40;;;;;;;3.47;1.40;;;;;;;13.79;100.00;99417.44;1742540;81;21003;-65
2022/10/19 09:26:16;;;;;;;3.95;2.20;;;;;;;13.89;100.00;99414.52;1750019;80;21058;-67
2022/10/19 09:28:59;;;;;;;5.12;1.87;;;;;;;13.92;100.00;99406.52;1758306;80;20968;-67
2022/10/19 09:31:36;;;;;;;3.55;1.50;;;;;;;13.90;100.00;99407.94;1754291;81;21082;-67
2022/10/19 09:34:05;;;;;;;4.55;1.72;;;;;;;13.88;100.00;99408.81;1753736;80;21355;-68
2022/10/19 09:36:41;;;;;;;3.92;1.50;;;;;;;13.78;100.00;99393.37;1748906;81;21416;-69
2022/10/19 09:39:11;;;;;;;4.93;1.80;;;;;;;13.66;100.00;99396.34;1750123;82;21569;-66
2022/10/19 09:41:53;;;;;;;3.30;1.57;;;;;;;13.63;100.00;99388.73;1751842;80;22356;-67
2022/10/19 09:44:20;;;;;;;3.75;1.60;;;;;;;13.65;100.00;99390.61;1715494;81;21034;-68
2022/10/19 09:46:51;;;;;;;2.83;1.37;;;;;;;13.65;100.00;99393.34;1715982;82;21447;-69
2022/10/19 09:49:18;;;;;;;5.15;1.35;;;;;;;13.68;100.00;99392.73;1753535;82;21058;-67
2022/10/19 09:51:50;;;;;;;2.77;0.98;;;;;;;13.77;100.00;99384.92;1752923;81;21101;-66
2022/10/19 09:54:26;;;;;;;3.72;1.60;;;;;;;13.82;100.00;99387.55;1743220;81;20995;-69
2022/10/19 09:56:54;;;;;;;4.20;2.40;;;;;;;13.89;100.00;99384.42;1744329;81;21062;-68
2022/10/19 09:59:23;;;;;;;6.05;3.02;;;;;;;13.89;100.00;99384.42;1752287;81;20994;-66
2022/10/19 10:02:07;;;;;;;7.15;3.20;;;;;;;13.85;100.00;99388.31;1741146;81;21599;-66
2022/10/19 10:04:35;;;;;;;3.98;2.33;;;;;;;13.84;100.00;99385.34;1732850;81;21097;-66
2022/10/19 10:07:02;;;;;;;4.15;1.70;;;;;;;13.84;100.00;99385.34;1752833;80;21098;-67
2022/10/19 10:09:29;;;;;;;4.03;1.90;;;;;;;13.83;100.00;99382.34;1718327;82;21629;-65
2022/10/19 10:11:58;;;;;;;;;;;;;;;13.83;100.00;99382.34;1750210;81;21043;-66
2022/10/19 10:14:31;;;;;;;4.45;1.85;;;;;;;13.87;100.00;99378.45;1750076;81;20140;-67
2022/10/19 10:17:04;;;;;;;3.77;1.87;;;;;;;13.85;100.00;99364.27;1737769;80;21086;-65
2022/10/19 10:19:32;;;;;;;3.72;1.65;;;;;;;13.91;100.00;99367.98;1752875;82;21070;-66
2022/10/19 10:21:59;;;;;;;3.70;2.00;;;;;;;13.99;100.00;99367.02;1750259;81;21391;-68
2022/10/19 10:24:28;;;;;;;4.47;1.80;;;;;;;14.13;100.00;99371.39;1690926;83;21485;-65
2022/10/19 10:27:00;;;;;;;3.47;1.60;;;;;;;14.26;100.00;99370.57;1745815;81;21011;-68
2022/10/19 10:29:32;;;;;;;1.95;0.93;;;;;;;14.38;100.00;99374.20;1754295;81;20964;-67
2022/10/19 10:32:06;;;;;;;3.47;1.25;;;;;;;14.46;100.00;99366.63;1754042;81;21042;-68
2022/10/19 10:34:38;;;;;;;5.15;1.27;;;;;;;14.43;100.00;99359.02;1764283;81;21487;-67
2022/10/19 10:37:07;;;;;;;2.77;1.05;;;;;;;14.34;100.00;99356.21;1751675;81;20984;-66
2022/10/19 10:39:39;;;;;;;7.22;1.50;;;;;;;14.26;100.00;99343.75;1748335;82;20980;-67
2022/10/19 10:42:17;;;;;;;4.95;1.75;;;;;;;14.17;100.00;99345.59;1750190;81;21016;-67
2022/10/19 10:44:51;;;;;;;3.17;1.60;;;;;;;14.10;100.00;99343.81;1740418;82;21579;-66
2022/10/19 10:47:20;;;;;;;2.60;1.22;;;;;;;14.01;100.00;99343.70;1752636;80;21066;-67
2022/10/19 10:49:58;;;;;;;3.02;1.22;;;;;;;13.96;100.00;99335.02;1753433;81;21079;-68
2022/10/19 10:52:26;;;;;;;3.85;1.30;;;;;;;13.98;100.00;99337.47;1732279;81;21711;-66
2022/10/19 10:55:09;;;;;;;4.40;1.00;;;;;;;14.05;100.00;99328.30;1736274;81;21007;-66
2022/10/19 10:57:40;;;;;;;3.37;1.20;;;;;;;14.13;100.00;99319.39;1734921;82;21102;-65
2022/10/19 11:00:16;;;;;;;2.50;1.20;;;;;;;14.23;100.00;99308.77;1729098;81;21665;-67
2022/10/19 11:03:28;;;;;;;4.75;1.10;;;;;;;14.33;100.00;99303.08;1736102;82;20992;-69
2022/10/19 11:05:57;;;;;;;3.12;1.30;;;;;;;14.46;100.00;99307.74;1689049;82;21068;-67
2022/10/19 11:08:35;;;;;;;4.15;1.22;;;;;;;14.53;100.00;99314.98;1733959;82;21067;-67
2022/10/19 11:11:29;;;;;;;6.25;1.70;;;;;;;14.54;100.00;99307.58;1718143;81;21137;-69
2022/10/19 11:14:26;;;;;;;2.87;1.32;;;;;;;14.55;100.00;99299.63;1728687;81;21007;-67
2022/10/19 11:16:54;;;;;;;3.83;1.75;;;;;;;14.49;100.00;99299.49;1732927;82;21601;-68
2022/10/19 11:19:39;;;;;;;2.87;1.30;;;;;;;14.44;100.00;99301.22;1706286;82;21058;-67
2022/10/19 11:22:28;;;;;;;3.42;1.67;;;;;;;14.41;100.00;99297.73;1728921;82;21101;-66
2022/10/19 11:25:22;;;;;;;4.30;1.60;;;;;;;14.51;100.00;99290.39;1732616;81;21074;-66
2022/10/19 11:28:13;;;;;;;3.17;1.30;;;;;;;14.73;100.00;99285.78;1736302;82;21052;-67
2022/10/19 11:30:57;;;;;;;4.58;1.80;;;;;;;14.88;100.00;99273.62;1726577;81;21432;-66
2022/10/19 11:34:00;;;;;;;5.15;1.47;;;;;;;15.01;100.00;99276.88;1734765;81;21019;-66
2022/10/19 11:36:46;;;;;;;4.15;1.50;;;;;;;15.07;100.00;99272.88;1721547;81;21605;-68
2022/10/19 11:39:31;;;;;;;3.95;1.40;;;;;;;15.04;100.00;99265.28;1719652;83;21107;-68
2022/10/19 11:42:12;;;;;;;3.72;1.87;;;;;;;15.03;100.00;99265.59;1682815;81;21083;-68
2022/10/19 11:44:54;;;;;;;3.50;1.30;;;;;;;15.02;100.00;99255.18;1736768;81;21023;-67